Airfield :
LOGIN :

Register | Disclaimer

   EN    FR    IT 

 










Legend :    VFR   Marginal VFR   IFR   Intensive IFR   Very Intensive IFR
Visi :
Ceiling :
>= 8 km
>= 3000ft
5 to 8 km
1000 to 3000 ft
1500m to 5 km
500 to 1000 ft
800 to 1500m
200 to 500 ft
< 800m
< 200 ft
Symbols :   Thunderstorms  Fog  Heavy snow  Heavy precipitations  Wind > 20 kt
SIGMETs :     Misc.  Thunderstorms  Icing  Turbulence  Mountain Waves  Volcanic Ashes







- Airport Elevation : 856 ft
- IATA code : VGO


LEVX - Vigo Peinador

CURRENT METAR :
  • 231930Z VRB01KT 9999 FEW025 SCT050 06/04 Q1012 TEMPO SHRA SCT020TCU

EXPIRED METARs :
  • 231900Z VRB02KT 9999 DZ SCT030 06/05 Q1012 TEMPO SHRA SCT020TCU
  • 231830Z VRB02KT 9999 DZ SCT042 06/05 Q1012 TEMPO SHRA SCT020TCU
  • 231800Z 00000KT 9999 DZ SCT044 06/05 Q1012 TEMPO 3000 SHRA SCT020TCU
  • 231730Z VRB02KT 9999 FEW016 06/05 Q1012 TEMPO 3000 SHRA SCT020TCU
  • 231700Z 02004KT 330V070 9999 FEW022 SCT029 BKN038 06/05 Q1011 TEMPO 3000 SHRA SCT020TCU

TAF TAF LEVX
Valid from the 23 at 18:00 until the 24 at 18:00 UTC


231700Z 2318/2418 01008KT 9999 BKN025 TX09/2415Z TN01/2406Z
TEMPO 2318/2323 SHRA BKN014 SCT025TCU
TEMPO 2400/2409 0800 BCFG BKN005
PROB40
TEMPO 2400/2409 0350 FG VV001
PROB40
TEMPO 2412/2418 SHRA TS SCT025CB
No reported NOTAMs for that airfield.



MET'MAP, your aeronautical weather chart ! - Copyright ORBIFLY December 2007 - Disclaimer

ORBIFLY MET'MAP TEAM :

Programming & Development : Alexandra Zaïnal
Concept & Development : Baudouin d'Aumeries
Co-Development & Prog : Marc-Olivier Méhu
Technical & hardware support : Manuel Goepfert

Contact : metmap@orbifly.com




SOURCES & CREDITS :

   NOAA